Moselem Springs, Pennsylvania
Current Conditions -  °F | °C
As of 7:54 AM on Friday 19 Dec 2014 (Local Time) from KRDG Reporting Station
Overcast Overcast  
Wind Chill: 29°   Ceiling: 3400
Heat Index: 36°   Visibility: 10mi
Dew Point: 24°   Wind: 9mph
Humidity: 62%   Direction: 300°WNW
Pressure: 30.06"   Gusts: NA
Location:  40.4504°N, 75.8012°W
Report Text: KRDG 191254Z 30008KT 10SM OVC034 02/M04 A3006 RMK AO2 SLP186 T00221044
Loading
Personal Weather Stations






























Interactive Weather Map New forecast layout! Learn more

10-Day Weather Forecast

Advertisements
Track Severe Weather on mobile